createdAt,value
2022-10-19T00:01:15.563Z,73.07
2022-10-19T00:03:45.097Z,73.13
2022-10-19T00:06:18.447Z,73.18
2022-10-19T00:08:46.112Z,73.09
2022-10-19T00:11:13.726Z,73.06
2022-10-19T00:13:41.845Z,73.22
2022-10-19T00:16:13.134Z,73.23
2022-10-19T00:18:43.350Z,73.35
2022-10-19T00:21:13.565Z,73.32
2022-10-19T00:23:41.867Z,73.29
2022-10-19T00:26:10.094Z,73.31
2022-10-19T00:28:38.225Z,73.42
2022-10-19T00:31:17.771Z,73.47
2022-10-19T00:33:47.117Z,73.47
2022-10-19T00:36:21.412Z,73.34
2022-10-19T00:38:49.869Z,73.46
2022-10-19T00:41:19.690Z,73.57
2022-10-19T00:44:19.227Z,73.57
2022-10-19T00:46:51.673Z,73.51
2022-10-19T00:49:27.129Z,73.47
2022-10-19T00:52:04.325Z,73.46
2022-10-19T00:54:33.541Z,73.58
2022-10-19T00:57:01.138Z,73.49
2022-10-19T00:59:31.838Z,73.58
2022-10-19T01:02:02.583Z,73.54
2022-10-19T01:04:33.873Z,73.48
2022-10-19T01:07:05.081Z,73.57
2022-10-19T01:09:32.666Z,73.54
2022-10-19T01:12:19.366Z,73.47
2022-10-19T01:15:03.054Z,73.35
2022-10-19T01:17:36.756Z,73.33
2022-10-19T01:20:35.510Z,73.38
2022-10-19T01:23:27.861Z,73.40
2022-10-19T01:26:04.713Z,73.45
2022-10-19T01:29:04.438Z,73.32
2022-10-19T01:31:37.056Z,73.45
2022-10-19T01:34:18.116Z,73.39
2022-10-19T01:37:04.670Z,73.34
2022-10-19T01:39:49.804Z,73.44
2022-10-19T01:42:30.640Z,73.49
2022-10-19T01:45:24.694Z,73.56
2022-10-19T01:48:07.322Z,73.41
2022-10-19T01:50:48.091Z,73.46
2022-10-19T01:53:18.611Z,73.49
2022-10-19T01:55:50.325Z,73.63
2022-10-19T01:58:27.253Z,73.64
2022-10-19T02:00:59.915Z,73.56
2022-10-19T02:03:28.972Z,73.45
2022-10-19T02:05:56.859Z,73.48
2022-10-19T02:08:38.348Z,73.45
2022-10-19T02:11:06.274Z,73.64
2022-10-19T02:13:36.247Z,73.62
2022-10-19T02:16:09.322Z,73.43
2022-10-19T02:18:44.770Z,73.56
2022-10-19T02:21:12.727Z,73.59
2022-10-19T02:23:40.487Z,73.47
2022-10-19T02:26:08.659Z,73.65
2022-10-19T02:28:36.988Z,73.50
2022-10-19T02:31:05.112Z,73.63
2022-10-19T02:33:32.745Z,73.57
2022-10-19T02:36:00.700Z,73.61
2022-10-19T02:38:28.627Z,73.66
2022-10-19T02:41:13.359Z,73.72
2022-10-19T02:43:43.791Z,73.58
2022-10-19T02:46:23.028Z,73.55
2022-10-19T02:48:51.805Z,73.63
2022-10-19T02:51:38.607Z,73.71
2022-10-19T02:54:08.544Z,73.55
2022-10-19T02:56:36.108Z,73.63
2022-10-19T02:59:03.877Z,73.60
2022-10-19T03:01:31.800Z,73.46
2022-10-19T03:03:59.509Z,73.49
2022-10-19T03:06:27.125Z,73.55
2022-10-19T03:08:54.697Z,73.58
2022-10-19T03:11:22.348Z,73.63
2022-10-19T03:13:49.907Z,73.66
2022-10-19T03:16:17.696Z,73.70
2022-10-19T03:18:45.268Z,73.74
2022-10-19T03:21:13.387Z,73.80
2022-10-19T03:23:41.847Z,73.97
2022-10-19T03:26:14.810Z,73.89
2022-10-19T03:28:42.668Z,73.81
2022-10-19T03:31:10.347Z,73.83
2022-10-19T03:33:38.064Z,73.94
2022-10-19T03:36:25.938Z,73.93
2022-10-19T03:38:56.151Z,73.78
2022-10-19T03:41:27.373Z,73.92
2022-10-19T03:43:56.297Z,73.78
2022-10-19T03:46:24.927Z,73.95
2022-10-19T03:48:53.639Z,73.88
2022-10-19T03:51:24.798Z,73.95
2022-10-19T03:53:56.409Z,73.99
2022-10-19T03:56:26.368Z,74.01
2022-10-19T03:58:55.643Z,73.98
2022-10-19T04:01:30.159Z,73.81
2022-10-19T04:04:00.472Z,74.06
2022-10-19T04:06:31.612Z,73.96
2022-10-19T04:09:00.259Z,74.04
2022-10-19T04:11:30.597Z,73.98
2022-10-19T04:13:59.299Z,74.07
2022-10-19T04:16:29.135Z,73.77
2022-10-19T04:18:56.790Z,73.93
2022-10-19T04:21:32.136Z,74.14
2022-10-19T04:24:08.833Z,74.01
2022-10-19T04:26:46.016Z,73.90
2022-10-19T04:29:15.210Z,74.04
2022-10-19T04:31:43.093Z,74.11
2022-10-19T04:34:11.647Z,74.09
2022-10-19T04:36:39.330Z,74.05
2022-10-19T04:39:08.074Z,74.02
2022-10-19T04:41:38.317Z,74.06
2022-10-19T04:44:09.427Z,74.01
2022-10-19T04:46:38.486Z,73.90
2022-10-19T04:49:06.997Z,74.12
2022-10-19T04:51:35.259Z,73.99
2022-10-19T04:54:04.608Z,73.89
2022-10-19T04:56:32.351Z,73.98
2022-10-19T04:59:00.938Z,73.93
2022-10-19T05:01:31.232Z,73.89
2022-10-19T05:04:01.397Z,73.96
2022-10-19T05:06:30.718Z,73.98
2022-10-19T05:08:59.782Z,74.03
2022-10-19T05:11:27.781Z,74.03
2022-10-19T05:13:57.231Z,73.93
2022-10-19T05:16:25.977Z,74.08
2022-10-19T05:18:59.610Z,74.10
2022-10-19T05:21:29.234Z,74.02
2022-10-19T05:23:58.118Z,74.13
2022-10-19T05:26:28.041Z,74.26
2022-10-19T05:29:01.486Z,74.06
2022-10-19T05:31:32.744Z,73.92
2022-10-19T05:34:00.812Z,74.03
2022-10-19T05:36:34.780Z,74.04
2022-10-19T05:39:06.049Z,74.04
2022-10-19T05:41:34.664Z,74.19
2022-10-19T05:44:06.937Z,74.17
2022-10-19T05:46:38.024Z,74.45
2022-10-19T05:49:05.923Z,74.21
2022-10-19T05:51:34.872Z,74.40
2022-10-19T05:54:04.052Z,74.33
2022-10-19T05:56:32.860Z,74.25
2022-10-19T05:59:04.097Z,74.30
2022-10-19T06:01:33.286Z,74.49
2022-10-19T06:04:02.732Z,74.40
2022-10-19T06:06:34.758Z,74.47
2022-10-19T06:09:03.765Z,74.40
2022-10-19T06:11:35.163Z,74.46
2022-10-19T06:14:06.905Z,74.33
2022-10-19T06:16:35.400Z,74.29
2022-10-19T06:19:05.212Z,74.31
2022-10-19T06:21:34.582Z,74.53
2022-10-19T06:24:06.798Z,74.41
2022-10-19T06:26:35.860Z,74.53
2022-10-19T06:29:05.022Z,74.42
2022-10-19T06:31:35.466Z,74.53
2022-10-19T06:34:04.521Z,74.46
2022-10-19T06:36:33.407Z,74.53
2022-10-19T06:39:03.775Z,74.63
2022-10-19T06:41:32.559Z,74.69
2022-10-19T06:44:01.639Z,74.70
2022-10-19T06:46:29.429Z,74.80
2022-10-19T06:48:59.084Z,74.73
2022-10-19T06:51:29.308Z,74.73
2022-10-19T06:53:57.637Z,74.64
2022-10-19T06:56:26.708Z,74.48
2022-10-19T06:58:58.227Z,74.46
2022-10-19T07:01:25.902Z,74.42
2022-10-19T07:03:55.299Z,74.64
2022-10-19T07:06:24.302Z,74.56
2022-10-19T07:08:52.362Z,74.63
2022-10-19T07:11:22.802Z,74.38
2022-10-19T07:13:52.634Z,74.02
2022-10-19T07:16:21.978Z,73.75
2022-10-19T07:18:51.949Z,74.04
2022-10-19T07:21:22.953Z,73.87
2022-10-19T07:23:51.237Z,74.00
2022-10-19T07:26:27.411Z,74.07
2022-10-19T07:28:56.952Z,73.91
2022-10-19T07:31:27.370Z,73.92
2022-10-19T07:34:00.758Z,73.92
2022-10-19T07:36:30.402Z,73.92
2022-10-19T07:38:58.249Z,73.52
2022-10-19T07:41:26.309Z,73.49
2022-10-19T07:43:54.661Z,73.36
2022-10-19T07:46:26.789Z,73.66
2022-10-19T07:48:55.758Z,73.79
2022-10-19T07:51:23.526Z,74.72
2022-10-19T07:53:51.673Z,77.05
2022-10-19T07:56:24.174Z,79.54
2022-10-19T07:58:54.626Z,78.67
2022-10-19T08:01:25.134Z,75.56
2022-10-19T08:06:42.732Z,72.50
2022-10-19T08:09:15.611Z,72.49
2022-10-19T08:11:50.580Z,72.63
2022-10-19T08:14:18.171Z,72.04
2022-10-19T08:16:45.978Z,72.25
2022-10-19T08:19:16.119Z,72.12
2022-10-19T08:21:46.217Z,71.81
2022-10-19T08:24:16.233Z,71.72
2022-10-19T08:26:44.469Z,72.50
2022-10-19T08:29:14.688Z,72.26
2022-10-19T08:31:44.891Z,72.02
2022-10-19T08:34:14.083Z,71.92
2022-10-19T08:39:12.727Z,72.09
2022-10-19T08:41:40.879Z,72.42
2022-10-19T08:44:18.061Z,75.93
2022-10-19T08:47:07.155Z,77.46
2022-10-19T08:49:40.410Z,73.27
2022-10-19T08:52:19.921Z,72.21
2022-10-19T08:54:59.626Z,73.83
2022-10-19T08:57:50.526Z,73.05
2022-10-19T09:00:29.904Z,71.26
2022-10-19T09:03:27.187Z,70.12
2022-10-19T09:06:27.212Z,70.30
2022-10-19T09:08:57.171Z,70.30
2022-10-19T09:11:38.903Z,70.57
2022-10-19T09:14:14.941Z,70.76
2022-10-19T09:16:46.569Z,70.45
2022-10-19T09:19:23.033Z,70.39
2022-10-19T09:21:56.516Z,70.60
2022-10-19T09:24:31.407Z,70.18
2022-10-19T09:27:02.202Z,69.72
2022-10-19T09:29:41.897Z,69.60
2022-10-19T09:32:18.623Z,69.66
2022-10-19T09:35:18.318Z,69.16
2022-10-19T09:37:49.198Z,68.96
2022-10-19T09:40:30.843Z,69.05
2022-10-19T09:43:09.014Z,68.82
2022-10-19T09:45:57.055Z,68.79
2022-10-19T09:48:42.043Z,68.60
2022-10-19T09:51:15.271Z,68.04
2022-10-19T09:53:52.879Z,67.85
2022-10-19T09:56:23.056Z,67.56
2022-10-19T09:58:57.394Z,67.12
2022-10-19T10:01:46.124Z,67.12
2022-10-19T10:04:18.920Z,67.20
2022-10-19T10:06:48.839Z,67.52
2022-10-19T10:09:26.679Z,67.33
2022-10-19T10:11:59.717Z,67.28
2022-10-19T10:14:33.985Z,67.25
2022-10-19T10:17:11.356Z,66.71
2022-10-19T10:20:03.089Z,66.61
2022-10-19T10:22:35.349Z,66.37
2022-10-19T10:25:18.299Z,67.10
2022-10-19T10:27:55.932Z,67.06
2022-10-19T10:30:23.703Z,67.26
2022-10-19T10:32:54.766Z,68.79
2022-10-19T10:35:32.694Z,70.11
2022-10-19T10:38:17.791Z,66.79
2022-10-19T10:41:02.271Z,65.46
2022-10-19T10:43:34.204Z,65.03
2022-10-19T10:46:07.925Z,64.55
2022-10-19T10:48:40.871Z,63.60
2022-10-19T10:51:20.767Z,63.90
2022-10-19T10:53:48.738Z,63.84
2022-10-19T10:56:34.313Z,63.28
2022-10-19T10:59:12.214Z,62.99
2022-10-19T11:01:42.576Z,62.77
2022-10-19T11:04:25.500Z,62.60
2022-10-19T11:07:05.133Z,62.42
2022-10-19T11:09:44.058Z,62.77
2022-10-19T11:12:17.776Z,63.43
2022-10-19T11:14:57.878Z,63.75
2022-10-19T11:17:30.893Z,63.97
2022-10-19T11:19:58.676Z,64.18
2022-10-19T11:22:34.966Z,63.96
2022-10-19T11:25:18.860Z,63.81
2022-10-19T11:28:12.807Z,64.10
2022-10-19T11:31:03.965Z,63.91
2022-10-19T11:33:34.710Z,63.72
2022-10-19T11:36:12.508Z,63.45
2022-10-19T11:38:53.011Z,63.49
2022-10-19T11:41:54.184Z,63.59
2022-10-19T11:44:46.891Z,64.03
2022-10-19T11:47:37.152Z,63.78
2022-10-19T11:50:29.607Z,63.42
2022-10-19T11:53:24.752Z,62.74
2022-10-19T11:56:34.752Z,62.23
2022-10-19T11:59:39.105Z,61.52
2022-10-19T12:02:39.627Z,61.05
2022-10-19T12:05:16.737Z,61.03
2022-10-19T12:08:33.768Z,61.20
2022-10-19T12:11:18.454Z,61.70
2022-10-19T12:14:03.162Z,62.02
2022-10-19T12:16:38.192Z,62.30
2022-10-19T12:19:12.891Z,62.44
2022-10-19T12:21:43.604Z,62.21
2022-10-19T12:24:17.587Z,62.13
2022-10-19T12:26:46.985Z,62.23
2022-10-19T12:29:21.606Z,62.18
2022-10-19T12:31:52.562Z,62.29
2022-10-19T12:34:50.855Z,62.49
2022-10-19T12:37:48.232Z,62.72
2022-10-19T12:40:40.295Z,62.66
2022-10-19T12:43:15.078Z,62.82
2022-10-19T12:46:14.937Z,63.08
2022-10-19T12:48:42.577Z,62.96
2022-10-19T12:51:15.192Z,63.17
2022-10-19T12:56:33.088Z,63.06
2022-10-19T12:59:02.748Z,62.71
2022-10-19T13:01:39.587Z,62.93
2022-10-19T13:04:14.594Z,62.89
2022-10-19T13:07:12.387Z,62.93
2022-10-19T13:09:48.837Z,63.24
2022-10-19T13:12:23.536Z,62.40
2022-10-19T13:14:59.581Z,61.98
2022-10-19T13:17:36.589Z,60.76
2022-10-19T13:20:20.834Z,60.60
2022-10-19T13:23:17.285Z,60.99
2022-10-19T13:25:46.689Z,60.88
2022-10-19T13:28:15.594Z,59.85
2022-10-19T13:30:43.186Z,59.43
2022-10-19T13:33:30.299Z,58.80
2022-10-19T13:36:01.051Z,57.88
2022-10-19T13:38:32.898Z,57.80
2022-10-19T13:41:25.915Z,57.37
2022-10-19T13:44:12.201Z,56.53
2022-10-19T13:46:47.526Z,56.16
2022-10-19T13:49:41.839Z,56.02
2022-10-19T13:52:43.766Z,55.65
2022-10-19T13:59:07.874Z,53.89
2022-10-19T14:01:51.807Z,54.19
2022-10-19T14:04:58.633Z,54.61
2022-10-19T14:07:33.249Z,55.15
2022-10-19T14:10:14.186Z,55.36
2022-10-19T14:12:47.374Z,54.78
2022-10-19T14:15:17.897Z,55.31
2022-10-19T14:17:50.354Z,56.14
2022-10-19T14:20:36.009Z,56.64
2022-10-19T14:23:24.804Z,56.60
2022-10-19T14:25:57.662Z,55.70
2022-10-19T14:28:26.711Z,55.34
2022-10-19T14:31:08.377Z,54.96
2022-10-19T14:33:40.339Z,54.60
2022-10-19T14:36:16.503Z,54.11
2022-10-19T14:38:44.772Z,53.98
2022-10-19T14:41:36.784Z,54.00
2022-10-19T14:44:38.516Z,53.00
2022-10-19T14:47:27.162Z,51.91
2022-10-19T14:50:04.100Z,51.59
2022-10-19T14:52:48.957Z,51.11
2022-10-19T14:55:20.033Z,51.19
2022-10-19T14:58:05.628Z,51.58
2022-10-19T15:00:33.668Z,51.86
2022-10-19T15:03:10.140Z,51.84
2022-10-19T15:05:46.664Z,52.11
2022-10-19T15:08:29.926Z,52.16
2022-10-19T15:10:58.969Z,52.37
2022-10-19T15:17:03.270Z,52.52
2022-10-19T15:19:44.330Z,52.75
2022-10-19T15:22:33.385Z,52.99
2022-10-19T15:25:08.766Z,53.12
2022-10-19T15:27:43.106Z,53.17
2022-10-19T15:30:28.505Z,53.24
2022-10-19T15:33:02.726Z,53.45
2022-10-19T15:35:39.793Z,53.62
2022-10-19T15:38:25.469Z,53.62
2022-10-19T15:40:59.292Z,53.73
2022-10-19T15:43:51.785Z,53.84
2022-10-19T15:46:24.288Z,53.95
2022-10-19T15:48:57.432Z,54.14
2022-10-19T15:51:31.005Z,54.23
2022-10-19T15:54:03.220Z,54.23
2022-10-19T15:56:33.446Z,54.23
2022-10-19T15:59:04.283Z,54.37
2022-10-19T16:01:34.360Z,54.39
2022-10-19T16:04:03.225Z,54.48
2022-10-19T16:06:34.154Z,54.71
2022-10-19T16:09:02.958Z,54.60
2022-10-19T16:11:33.800Z,54.67
2022-10-19T16:14:01.452Z,54.74
2022-10-19T16:16:32.550Z,54.84
2022-10-19T16:19:00.844Z,54.98
2022-10-19T16:21:32.630Z,54.99
2022-10-19T16:24:00.711Z,55.12
2022-10-19T16:26:29.192Z,55.04
2022-10-19T16:28:56.867Z,55.18
2022-10-19T16:31:24.463Z,55.16
2022-10-19T16:33:52.102Z,55.40
2022-10-19T16:36:20.370Z,55.30
2022-10-19T16:38:48.054Z,55.42
2022-10-19T16:41:16.463Z,55.50
2022-10-19T16:43:44.245Z,55.54
2022-10-19T16:46:11.911Z,55.50
2022-10-19T16:48:39.554Z,55.61
2022-10-19T16:51:07.150Z,55.58
2022-10-19T16:53:36.874Z,55.70
2022-10-19T16:56:13.704Z,55.81
2022-10-19T16:58:41.268Z,55.68
2022-10-19T17:01:10.746Z,55.76
2022-10-19T17:03:38.657Z,55.85
2022-10-19T17:06:07.804Z,55.78
2022-10-19T17:09:07.385Z,55.96
2022-10-19T17:11:38.664Z,55.92
2022-10-19T17:14:13.004Z,56.08
2022-10-19T17:16:40.987Z,56.18
2022-10-19T17:19:10.225Z,56.02
2022-10-19T17:21:38.892Z,56.29
2022-10-19T17:24:09.495Z,56.14
2022-10-19T17:26:42.100Z,56.39
2022-10-19T17:29:09.890Z,56.34
2022-10-19T17:31:39.639Z,56.32
2022-10-19T17:34:08.538Z,56.40
2022-10-19T17:39:11.330Z,56.45
2022-10-19T17:41:39.037Z,56.39
2022-10-19T17:44:07.433Z,56.57
2022-10-19T17:46:35.957Z,56.58
2022-10-19T17:49:04.139Z,56.70
2022-10-19T17:51:33.970Z,56.83
2022-10-19T17:54:05.399Z,56.69
2022-10-19T17:56:34.708Z,56.79
2022-10-19T17:59:03.820Z,56.90
2022-10-19T18:01:31.537Z,56.86
2022-10-19T18:03:59.266Z,56.93
2022-10-19T18:06:31.641Z,57.02
2022-10-19T18:09:02.157Z,57.12
2022-10-19T18:11:35.929Z,57.03
2022-10-19T18:14:04.517Z,57.21
2022-10-19T18:16:35.412Z,57.22
2022-10-19T18:19:04.770Z,57.36
2022-10-19T18:21:38.378Z,57.48
2022-10-19T18:24:11.305Z,57.52
2022-10-19T18:26:42.646Z,57.52
2022-10-19T18:29:17.776Z,57.64
2022-10-19T18:31:51.238Z,57.44
2022-10-19T18:34:25.179Z,57.54
2022-10-19T18:36:53.835Z,57.67
2022-10-19T18:39:21.771Z,57.81
2022-10-19T18:41:56.315Z,57.63
2022-10-19T18:44:26.651Z,57.81
2022-10-19T18:46:57.399Z,57.85
2022-10-19T18:49:25.587Z,58.02
2022-10-19T18:51:55.435Z,57.96
2022-10-19T18:54:26.145Z,58.01
2022-10-19T18:56:55.138Z,58.08
2022-10-19T18:59:22.986Z,58.21
2022-10-19T19:01:50.957Z,58.12
2022-10-19T19:04:18.860Z,58.26
2022-10-19T19:06:46.888Z,58.17
2022-10-19T19:09:14.582Z,58.29
2022-10-19T19:11:42.255Z,58.28
2022-10-19T19:14:16.044Z,58.31
2022-10-19T19:16:45.498Z,58.52
2022-10-19T19:19:15.854Z,58.46
2022-10-19T19:21:44.980Z,58.49
2022-10-19T19:24:16.762Z,58.51
2022-10-19T19:26:49.282Z,58.43
2022-10-19T19:29:18.938Z,58.57
2022-10-19T19:31:47.325Z,58.58
2022-10-19T19:34:16.141Z,58.75
2022-10-19T19:36:50.757Z,58.79
2022-10-19T19:39:20.544Z,58.62
2022-10-19T19:41:49.539Z,58.74
2022-10-19T19:44:19.321Z,58.67
2022-10-19T19:46:47.040Z,58.96
2022-10-19T19:49:14.893Z,59.13
2022-10-19T19:51:43.054Z,59.20
2022-10-19T19:54:12.314Z,59.22
2022-10-19T19:56:42.340Z,59.35
2022-10-19T19:59:12.195Z,59.50
2022-10-19T20:01:40.281Z,59.56
2022-10-19T20:04:08.872Z,59.46
2022-10-19T20:06:38.815Z,59.63
2022-10-19T20:09:10.870Z,59.67
2022-10-19T20:11:42.413Z,59.58
2022-10-19T20:14:11.934Z,59.69
2022-10-19T20:16:39.877Z,59.52
2022-10-19T20:19:11.144Z,59.78
2022-10-19T20:21:39.312Z,59.55
2022-10-19T20:24:07.733Z,59.63
2022-10-19T20:26:37.399Z,59.67
2022-10-19T20:29:05.706Z,59.87
2022-10-19T20:31:39.551Z,60.09
2022-10-19T20:34:11.160Z,59.92
2022-10-19T20:36:39.854Z,60.06
2022-10-19T20:39:07.692Z,60.20
2022-10-19T20:41:35.532Z,60.02
2022-10-19T20:44:03.363Z,60.20
2022-10-19T20:46:31.811Z,60.18
2022-10-19T20:49:01.931Z,60.28
2022-10-19T20:51:32.951Z,60.29
2022-10-19T20:54:04.250Z,60.39
2022-10-19T20:56:35.898Z,60.35
2022-10-19T20:59:06.641Z,60.56
2022-10-19T21:01:37.774Z,60.65
2022-10-19T21:04:07.974Z,60.70
2022-10-19T21:06:46.340Z,60.66
2022-10-19T21:09:17.197Z,60.80
2022-10-19T21:11:46.191Z,60.65
2022-10-19T21:14:17.955Z,60.80
2022-10-19T21:16:45.679Z,60.93
2022-10-19T21:19:20.474Z,60.87
2022-10-19T21:21:52.642Z,60.84
2022-10-19T21:24:27.456Z,60.91
2022-10-19T21:26:55.120Z,60.97
2022-10-19T21:29:22.810Z,60.90
2022-10-19T21:31:53.534Z,61.02
2022-10-19T21:34:24.750Z,60.99
2022-10-19T21:36:53.865Z,61.15
2022-10-19T21:39:22.227Z,61.07
2022-10-19T21:41:50.242Z,61.10
2022-10-19T21:44:18.811Z,61.20
2022-10-19T21:46:49.766Z,61.17
2022-10-19T21:49:17.573Z,61.15
2022-10-19T21:51:47.198Z,61.15
2022-10-19T21:54:20.687Z,61.23
2022-10-19T21:56:48.507Z,61.47
2022-10-19T21:59:17.179Z,61.43
2022-10-19T22:01:44.892Z,61.49
2022-10-19T22:04:17.604Z,61.53
2022-10-19T22:06:46.076Z,61.64
2022-10-19T22:09:20.775Z,61.71
2022-10-19T22:11:48.834Z,61.72
2022-10-19T22:14:17.975Z,61.75
2022-10-19T22:16:45.610Z,61.62
2022-10-19T22:19:13.780Z,61.59
2022-10-19T22:21:41.508Z,61.69
2022-10-19T22:24:14.438Z,61.82
2022-10-19T22:26:46.222Z,61.81
2022-10-19T22:29:14.498Z,61.73
2022-10-19T22:31:42.792Z,61.85
2022-10-19T22:34:16.729Z,61.79
2022-10-19T22:36:45.255Z,61.81
2022-10-19T22:39:14.386Z,61.78
2022-10-19T22:41:42.113Z,61.80
2022-10-19T22:44:09.804Z,61.69
2022-10-19T22:46:37.625Z,61.69
2022-10-19T22:49:06.366Z,61.84
2022-10-19T22:51:34.057Z,61.96
2022-10-19T22:54:01.904Z,61.96
2022-10-19T22:56:30.176Z,62.09
2022-10-19T22:59:01.737Z,62.15
2022-10-19T23:01:29.466Z,61.90
2022-10-19T23:03:57.132Z,61.95
2022-10-19T23:06:25.012Z,61.97
2022-10-19T23:08:53.931Z,62.03
2022-10-19T23:11:22.637Z,62.05
2022-10-19T23:13:50.266Z,62.10
2022-10-19T23:16:18.008Z,62.21
2022-10-19T23:18:45.629Z,62.26
2022-10-19T23:21:14.286Z,62.40
2022-10-19T23:23:43.695Z,62.44
2022-10-19T23:26:17.447Z,62.46
2022-10-19T23:28:47.444Z,62.28
2022-10-19T23:31:20.862Z,62.47
2022-10-19T23:33:48.490Z,62.60
2022-10-19T23:36:23.218Z,62.55
2022-10-19T23:38:52.706Z,62.41
2022-10-19T23:41:22.747Z,62.53
2022-10-19T23:43:50.505Z,62.48
2022-10-19T23:46:18.668Z,62.65
2022-10-19T23:48:46.255Z,62.56
2022-10-19T23:51:16.300Z,62.74
2022-10-19T23:53:45.962Z,62.64
2022-10-19T23:56:29.618Z,62.71
2022-10-19T23:58:57.418Z,62.43
